Have a Safe July 4th! 

Flight Track Log - Related Links

Times and Time Zones

All times are in EDT time to prevent confusion due to time zone crossing. See the WIG1043 flight status page for this flight to view local times or setup timezone preferences in your user account.

Time Position Orientation Groundspeed Altitude Reporting Facility
EDT Latitude Longitude Course Direction KTS MPH feet Rate Location/Type
Mon 07:39:06 PM 44.7319 -68.7822 226° Southwest 119 137 4,100  Level Boston Center
Mon 07:40:07 PM 44.7094 -68.8153 226° Southwest 118 136 5,200 1,033 Climbing Boston Center
Mon 07:41:08 PM 44.6872 -68.8481 226° Southwest 117 135 6,200 984 Climbing Boston Center
Mon 07:42:00 PM 44.6814 -69.0019 215° Southwest  Level FlightAware Approximate
Mon 07:42:09 PM 44.6647 -68.8831 228° Southwest 117 135 7,200  Level Boston Center
Mon 07:43:00 PM 44.6547 -69.0346 227° Southwest  Level FlightAware Approximate
Mon 07:43:10 PM 44.6425 -68.9200 230° Southwest 118 136 7,900  Level Boston Center
Mon 07:44:00 PM 44.6304 -69.0710 226° Southwest  Level FlightAware Approximate
Mon 07:44:12 PM 44.6169 -68.9594 228° Southwest 130 150 8,000  Level Boston Center
Mon 07:45:13 PM 44.5886 -69.0047 229° Southwest 147 169 8,000  Level Boston Center
Mon 07:46:14 PM 44.5619 -69.0506 231° Southwest 149 171 8,000  Level Boston Center
Mon 07:47:15 PM 44.5342 -69.0953 229° Southwest 149 171 8,000  Level Boston Center
Mon 07:48:16 PM 44.5044 -69.1378 226° Southwest 149 171 8,000  Level Boston Center
Mon 07:49:18 PM 44.4758 -69.1800 226° Southwest 150 173 8,000  Level Boston Center
Mon 07:50:19 PM 44.4417 -69.2319 227° Southwest 149 171 8,000  Level Boston Center
Mon 07:51:20 PM 44.4133 -69.2761 228° Southwest 150 173 8,000  Level Boston Center
Mon 07:52:21 PM 44.3864 -69.3197 229° Southwest 150 173 8,000  Level Boston Center
Mon 07:53:22 PM 44.3581 -69.3625 227° Southwest 150 173 8,000  Level Boston Center
Mon 07:54:23 PM 44.3289 -69.4064 227° Southwest 150 173 8,000  Level Boston Center
Mon 07:55:24 PM 44.3011 -69.4503 229° Southwest 150 173 8,000  Level Boston Center
Mon 07:56:26 PM 44.2728 -69.4928 227° Southwest 150 173 8,000  Level Boston Center
Mon 07:57:27 PM 44.2433 -69.5369 227° Southwest 150 173 8,000  Level Boston Center
Mon 07:58:28 PM 44.2114 -69.5803 224° Southwest 154 177 8,000  Level Boston Center
Mon 07:59:29 PM 44.1808 -69.6225 225° Southwest 154 177 8,000  Level Boston Center
Mon 08:00:30 PM 44.1489 -69.6686 226° Southwest 156 180 8,000  Level Boston Center
Mon 08:01:31 PM 44.1167 -69.7158 226° Southwest 156 180 8,000  Level Boston Center
Mon 08:02:32 PM 44.0878 -69.7603 228° Southwest 155 178 8,000  Level Boston Center
Mon 08:03:33 PM 44.0586 -69.8050 228° Southwest 156 180 8,000  Level Boston Center
Mon 08:04:34 PM 44.0294 -69.8508 228° Southwest 157 181 8,000  Level Boston Center
Mon 08:05:35 PM 44.0008 -69.8958 229° Southwest 156 180 8,000  Level Boston Center
Mon 08:06:36 PM 43.9689 -69.9453 228° Southwest 157 181 8,000  Level Boston Center
Mon 08:07:37 PM 43.9389 -69.9889 226° Southwest 158 182 8,000  Level Boston Center
Mon 08:08:38 PM 43.9081 -70.0336 226° Southwest 158 182 8,000  Level Boston Center
Mon 08:09:39 PM 43.8767 -70.0775 225° Southwest 159 183 8,000  Level Boston Center
Mon 08:10:41 PM 43.8461 -70.1219 226° Southwest 159 183 8,000  Level Boston Center
Mon 08:11:42 PM 43.8133 -70.1703 227° Southwest 158 182 8,000  Level Boston Center
Mon 08:12:43 PM 43.7825 -70.2144 226° Southwest 159 183 8,000  Level Boston Center
Mon 08:13:44 PM 43.7517 -70.2603 227° Southwest 159 183 8,000  Level Boston Center
Mon 08:14:45 PM 43.7211 -70.3053 227° Southwest 160 184 8,000  Level Boston Center
Mon 08:15:46 PM 43.6911 -70.3500 227° Southwest 159 183 8,000  Level Boston Center
Mon 08:16:47 PM 43.6611 -70.3942 227° Southwest 158 182 8,000  Level Boston Center
Mon 08:17:48 PM 43.6281 -70.4425 227° Southwest 159 183 8,000  Level Boston Center
Mon 08:18:49 PM 43.5992 -70.4872 228° Southwest 158 182 8,000  Level Boston Center
Mon 08:19:50 PM 43.5722 -70.5314 230° Southwest 155 178 8,000  Level Boston Center
Mon 08:20:51 PM 43.5431 -70.5758 228° Southwest 155 178 8,000  Level Boston Center
Mon 08:21:52 PM 43.5131 -70.6194 227° Southwest 157 181 8,000  Level Boston Center
Mon 08:22:53 PM 43.4814 -70.6656 227° Southwest 155 178 8,000  Level Boston Center
Mon 08:23:54 PM 43.4503 -70.7069 224° Southwest 154 177 8,000  Level Boston Center
Mon 08:24:55 PM 43.4211 -70.7503 227° Southwest 154 177 8,000  Level Boston Center
Mon 08:25:56 PM 43.3906 -70.7922 225° Southwest 151 174 8,000  Level Boston Center
Mon 08:26:58 PM 43.3611 -70.8347 226° Southwest 154 177 8,000  Level Boston Center
Mon 08:27:59 PM 43.3314 -70.8758 225° Southwest 154 177 8,000 -98 Level Boston Center
Mon 08:29:00 PM 43.3003 -70.9217 227° Southwest 154 177 7,800 -590 Descending Boston Center
Mon 08:30:01 PM 43.2681 -70.9667 225° Southwest 162 186 6,800 -934 Descending Boston Center
Mon 08:31:02 PM 43.2375 -71.0125 228° Southwest 163 188 5,900 -934 Descending Boston Center
Mon 08:32:03 PM 43.2067 -71.0594 228° Southwest 163 188 4,900 -885 Descending Boston Center
Mon 08:33:04 PM 43.1719 -71.1058 224° Southwest 163 188 4,100 -443 Descending Boston Center
Mon 08:34:05 PM 43.1442 -71.1497 229° Southwest 157 181 4,000 -295 Descending Boston Center
Mon 08:35:06 PM 43.1242 -71.1956 239° Southwest 144 166 3,500 -443 Descending Boston Center
Mon 08:36:07 PM 43.1017 -71.2358 233° Southwest 139 160 3,100 -341 Descending Boston Center
Mon 08:37:09 PM 43.0733 -71.2703 222° Southwest 129 148 2,800 -195 Descending Boston Center
Mon 08:38:10 PM 43.0469 -71.3017 221° Southwest 125 144 2,700 -148 Descending Boston Center
Mon 08:39:11 PM 43.0247 -71.3300 223° Southwest 112 129 2,500 -344 Descending Boston Center
Mon 08:40:12 PM 43.0047 -71.3564 224° Southwest 105 121 2,000 -590 Descending Boston Center
Mon 08:41:13 PM 42.9817 -71.3833 221° Southwest 103 119 1,300 -639 Descending Boston Center
Mon 08:42:14 PM 42.9608 -71.4086 222° Southwest 103 119 700 -443 Descending Boston Center
Mon 08:43:15 PM 42.9414 -71.4328 222° Southwest 103 119 400 -295 Descending Boston Center
Mon 08:45:00 PM 42.9328 -71.4358 222° Southwest  Level Estimated

Login

Don't have an account? Register now (free) for customized features, flight alerts, and more!